createdAt,value
2022-09-05T00:02:03.413Z,88.4
2022-09-05T00:08:01.516Z,88.9
2022-09-05T00:13:51.840Z,88.1
2022-09-05T00:24:41.891Z,90.3
2022-09-05T00:31:58.128Z,88.3
2022-09-05T00:37:45.953Z,86.7
2022-09-05T00:43:36.905Z,86.8
2022-09-05T00:49:27.847Z,87.8
2022-09-05T00:55:18.890Z,88.2
2022-09-05T01:01:23.279Z,88.5
2022-09-05T01:07:14.708Z,89.2
2022-09-05T01:13:05.595Z,89.3
2022-09-05T01:18:56.600Z,88.6
2022-09-05T01:24:47.873Z,88.5
2022-09-05T01:30:38.518Z,87.8
2022-09-05T01:36:28.809Z,88.9
2022-09-05T01:42:20.131Z,90.8
2022-09-05T01:48:11.416Z,89.8
2022-09-05T01:54:02.527Z,89.7
2022-09-05T02:00:11.267Z,89.8
2022-09-05T02:06:02.493Z,89.4
2022-09-05T02:11:54.609Z,89.8
2022-09-05T02:17:52.774Z,90.8
2022-09-05T02:23:44.757Z,90.5
2022-09-05T02:29:39.904Z,90
2022-09-05T02:35:53.331Z,90
2022-09-05T02:45:27.421Z,89.3
2022-09-05T02:58:09.268Z,89.7
2022-09-05T03:04:11.152Z,89.1
2022-09-05T03:10:02.915Z,88.7
2022-09-05T03:16:04.753Z,89.1
2022-09-05T03:22:01.276Z,88
2022-09-05T03:27:52.873Z,90.2
2022-09-05T03:33:46.319Z,89.8
2022-09-05T03:39:49.295Z,88.3
2022-09-05T03:45:46.204Z,88.3
2022-09-05T03:57:36.810Z,90
2022-09-05T04:14:41.056Z,89.9
2022-09-05T04:57:53.334Z,92.5
2022-09-05T05:06:35.056Z,92.9
2022-09-05T05:18:38.845Z,92.5
2022-09-05T05:25:14.977Z,90.8
2022-09-05T05:31:08.440Z,90.8
2022-09-05T05:43:55.312Z,94.1
2022-09-05T05:49:51.610Z,92.6
2022-09-05T05:55:59.789Z,91.9
2022-09-05T06:15:03.083Z,92
2022-09-05T06:22:14.883Z,87.6
2022-09-05T06:28:21.289Z,87.8
2022-09-05T06:34:35.918Z,88.1
2022-09-05T06:40:32.234Z,87.3
2022-09-05T06:47:23.174Z,86.3
2022-09-05T06:53:23.826Z,85.3
2022-09-05T06:59:16.284Z,85
2022-09-05T07:05:42.664Z,83.7
2022-09-05T07:11:40.995Z,82.3
2022-09-05T07:17:38.225Z,81.8
2022-09-05T07:24:11.282Z,80.3
2022-09-05T07:30:38.855Z,78.5
2022-09-05T07:36:30.209Z,77.2
2022-09-05T07:42:22.624Z,75.9
2022-09-05T07:48:16.189Z,75
2022-09-05T07:57:29.901Z,73.4
2022-09-05T08:03:37.512Z,73.2
2022-09-05T08:10:10.965Z,69.7
2022-09-05T08:16:17.363Z,69.3
2022-09-05T08:29:01.027Z,68.3
2022-09-05T08:34:50.105Z,66.7
2022-09-05T08:40:39.968Z,63.4
2022-09-05T08:46:49.535Z,63.6
2022-09-05T08:52:44.614Z,64
2022-09-05T08:58:39.661Z,61.7
2022-09-05T09:05:04.127Z,60.5
2022-09-05T09:11:06.260Z,61.4
2022-09-05T09:16:58.570Z,59.4
2022-09-05T09:22:50.013Z,57.4
2022-09-05T09:28:52.694Z,55.7
2022-09-05T09:34:50.857Z,56.4
2022-09-05T09:41:09.404Z,56.2
2022-09-05T09:47:01.767Z,51.6
2022-09-05T09:52:53.646Z,51.9
2022-09-05T09:58:44.773Z,51.8
2022-09-05T10:17:41.282Z,46.8
2022-09-05T10:23:32.255Z,45.4
2022-09-05T10:29:39.739Z,44.1
2022-09-05T10:35:31.407Z,45.2
2022-09-05T10:41:25.566Z,44.7
2022-09-05T10:47:18.426Z,44.6
2022-09-05T10:53:13.205Z,44
2022-09-05T11:02:36.618Z,43.3
2022-09-05T11:08:41.110Z,39.2
2022-09-05T11:14:32.976Z,39.5
2022-09-05T11:20:39.319Z,39.4
2022-09-05T11:26:28.993Z,39.1
2022-09-05T11:40:01.694Z,40.1
2022-09-05T11:46:53.993Z,38.4
2022-09-05T11:53:28.487Z,36.5
2022-09-05T11:59:34.995Z,40.1
2022-09-05T12:42:11.275Z,37.1
2022-09-05T12:48:41.522Z,34.5
2022-09-05T12:54:35.771Z,34.8
2022-09-05T13:03:27.537Z,35.5
2022-09-05T13:14:51.769Z,34.9
2022-09-05T13:21:06.457Z,34.3
2022-09-05T13:26:56.406Z,34.2
2022-09-05T13:38:42.195Z,34.8
2022-09-05T13:44:37.211Z,33.8
2022-09-05T13:50:28.427Z,35.2
2022-09-05T13:56:19.629Z,32.7
2022-09-05T14:02:28.281Z,34.4
2022-09-05T14:08:19.942Z,35.2
2022-09-05T14:14:13.076Z,36.1
2022-09-05T14:20:52.086Z,35
2022-09-05T14:26:43.187Z,31.1
2022-09-05T14:38:07.737Z,32
2022-09-05T14:44:02.108Z,31.9
2022-09-05T14:49:53.942Z,32.9
2022-09-05T14:55:43.527Z,32.1
2022-09-05T15:12:31.044Z,31.7
2022-09-05T15:18:41.396Z,31.9
2022-09-05T15:24:31.770Z,32.8
2022-09-05T15:30:36.638Z,31.1
2022-09-05T15:36:25.361Z,31.2
2022-09-05T15:42:15.472Z,30.5
2022-09-05T15:48:05.246Z,30.4
2022-09-05T15:54:01.505Z,31.3
2022-09-05T15:59:59.542Z,31.1
2022-09-05T16:11:15.419Z,31.6
2022-09-05T16:23:42.765Z,31.5
2022-09-05T16:29:31.274Z,31.7
2022-09-05T16:35:29.066Z,32.5
2022-09-05T16:41:26.565Z,33.3
2022-09-05T16:47:16.422Z,32.8
2022-09-05T16:53:32.181Z,33.6
2022-09-05T16:59:30.108Z,33.3
2022-09-05T17:05:20.461Z,34.2
2022-09-05T17:11:31.630Z,34.9
2022-09-05T17:18:25.243Z,36.7
2022-09-05T17:31:10.726Z,38.9
2022-09-05T17:37:41.677Z,42.5
2022-09-05T17:43:38.363Z,43.8
2022-09-05T17:49:29.138Z,44.7
2022-09-05T17:55:20.207Z,45.4
2022-09-05T18:01:11.673Z,44.1
2022-09-05T18:07:04.449Z,43.9
2022-09-05T18:13:34.495Z,45.5
2022-09-05T18:19:36.485Z,45.1
2022-09-05T18:25:40.201Z,44.9
2022-09-05T18:31:43.702Z,45.5
2022-09-05T18:37:43.737Z,46.4
2022-09-05T18:43:45.001Z,47
2022-09-05T18:50:32.047Z,46.9
2022-09-05T18:56:29.310Z,47.5
2022-09-05T19:02:58.715Z,48
2022-09-05T19:08:53.367Z,49
2022-09-05T19:14:45.191Z,50.6
2022-09-05T19:20:41.395Z,49.5
2022-09-05T19:26:31.661Z,50.3
2022-09-05T19:37:38.506Z,50.8
2022-09-05T19:48:07.238Z,54.7
2022-09-05T19:54:06.838Z,53.4
2022-09-05T19:59:56.484Z,53.1
2022-09-05T20:05:46.714Z,56.4
2022-09-05T20:11:47.564Z,56.1
2022-09-05T20:17:37.329Z,56.5
2022-09-05T20:23:28.336Z,57.8
2022-09-05T20:29:20.306Z,59.1
2022-09-05T20:43:34.648Z,59.3
2022-09-05T20:54:34.571Z,60.5
2022-09-05T21:00:27.181Z,59.1
2022-09-05T21:07:27.223Z,60.8
2022-09-05T21:13:16.637Z,63.1
2022-09-05T21:19:07.817Z,63.1
2022-09-05T21:24:58.029Z,62.9
2022-09-05T21:30:48.034Z,63.5
2022-09-05T21:36:40.753Z,64.4
2022-09-05T21:47:51.933Z,64.4
2022-09-05T21:59:34.855Z,65.2
2022-09-05T22:05:35.623Z,64.4
2022-09-05T22:11:26.707Z,65.8
2022-09-05T22:17:19.067Z,66.7
2022-09-05T22:23:10.275Z,67.8
2022-09-05T22:29:01.037Z,67.4
2022-09-05T22:36:03.307Z,66.8
2022-09-05T22:41:54.427Z,68.3
2022-09-05T22:48:01.539Z,68.6
2022-09-05T22:53:55.395Z,69
2022-09-05T23:00:06.156Z,67.7
2022-09-05T23:06:02.353Z,68.2
2022-09-05T23:11:55.129Z,68
2022-09-05T23:18:03.345Z,67
2022-09-05T23:24:10.988Z,69.2
2022-09-05T23:30:16.180Z,67.9
2022-09-05T23:36:11.177Z,69.4
2022-09-05T23:42:02.533Z,68.9
2022-09-05T23:47:54.889Z,68.5
2022-09-05T23:53:52.713Z,69.5
2022-09-05T23:59:52.728Z,70.1
